sensor_id;sensor_type;location;lat;lon;timestamp;pressure;altitude;pressure_sealevel;temperature;humidity
50292;BME280;36190;54.980;73.388;2022-09-01T00:01:03;99381.78;;;19.74;48.25
50292;BME280;36190;54.980;73.388;2022-09-01T00:03:33;99386.69;;;19.77;48.20
50292;BME280;36190;54.980;73.388;2022-09-01T00:06:01;99374.22;;;19.76;48.10
50292;BME280;36190;54.980;73.388;2022-09-01T00:08:28;99375.09;;;19.82;48.03
50292;BME280;36190;54.980;73.388;2022-09-01T00:10:56;99372.13;;;19.83;47.95
50292;BME280;36190;54.980;73.388;2022-09-01T00:13:23;99379.72;;;19.86;47.94
50292;BME280;36190;54.980;73.388;2022-09-01T00:15:52;99374.63;;;19.90;47.87
50292;BME280;36190;54.980;73.388;2022-09-01T00:18:19;99372.50;;;19.92;47.74
50292;BME280;36190;54.980;73.388;2022-09-01T00:20:47;99368.72;;;19.93;47.67
50292;BME280;36190;54.980;73.388;2022-09-01T00:23:14;99363.31;;;19.93;47.59
50292;BME280;36190;54.980;73.388;2022-09-01T00:25:41;99358.69;;;19.93;47.83
50292;BME280;36190;54.980;73.388;2022-09-01T00:28:09;99368.72;;;19.93;47.70
50292;BME280;36190;54.980;73.388;2022-09-01T00:30:36;99374.94;;;19.93;47.58
50292;BME280;36190;54.980;73.388;2022-09-01T00:33:05;99366.59;;;19.95;47.59
50292;BME280;36190;54.980;73.388;2022-09-01T00:35:33;99367.75;;;19.99;47.55
50292;BME280;36190;54.980;73.388;2022-09-01T00:38:00;99365.59;;;20.01;47.40
50292;BME280;36190;54.980;73.388;2022-09-01T00:40:27;99370.47;;;20.04;47.53
50292;BME280;36190;54.980;73.388;2022-09-01T00:42:55;99375.13;;;20.09;47.37
50292;BME280;36190;54.980;73.388;2022-09-01T00:45:25;99378.13;;;20.13;47.40
50292;BME280;36190;54.980;73.388;2022-09-01T00:47:53;99375.47;;;20.18;47.43
50292;BME280;36190;54.980;73.388;2022-09-01T00:50:22;99375.50;;;20.23;47.28
50292;BME280;36190;54.980;73.388;2022-09-01T00:52:52;99374.47;;;20.29;47.28
50292;BME280;36190;54.980;73.388;2022-09-01T00:55:22;99364.25;;;20.37;47.23
50292;BME280;36190;54.980;73.388;2022-09-01T00:57:51;99348.06;;;20.42;47.10
50292;BME280;36190;54.980;73.388;2022-09-01T01:00:21;99338.50;;;20.34;47.10
50292;BME280;36190;54.980;73.388;2022-09-01T01:02:50;99356.72;;;20.44;46.90
50292;BME280;36190;54.980;73.388;2022-09-01T01:05:22;99361.63;;;20.47;46.87
50292;BME280;36190;54.980;73.388;2022-09-01T01:07:54;99379.78;;;20.46;46.85
50292;BME280;36190;54.980;73.388;2022-09-01T01:10:22;99376.03;;;20.53;46.93
50292;BME280;36190;54.980;73.388;2022-09-01T01:12:51;99382.25;;;20.53;46.91
50292;BME280;36190;54.980;73.388;2022-09-01T01:15:19;99376.84;;;20.53;47.10
50292;BME280;36190;54.980;73.388;2022-09-01T01:17:46;99393.09;;;20.53;47.13
50292;BME280;36190;54.980;73.388;2022-09-01T01:20:16;99350.75;;;20.42;47.45
50292;BME280;36190;54.980;73.388;2022-09-01T01:23:05;99361.63;;;20.47;47.62
50292;BME280;36190;54.980;73.388;2022-09-01T01:25:40;99357.75;;;20.38;47.80
50292;BME280;36190;54.980;73.388;2022-09-01T01:28:13;99314.88;;;20.24;47.70
50292;BME280;36190;54.980;73.388;2022-09-01T01:30:43;99320.00;;;20.26;47.73
50292;BME280;36190;54.980;73.388;2022-09-01T01:33:15;99304.53;;;20.16;47.98
50292;BME280;36190;54.980;73.388;2022-09-01T01:35:43;99341.84;;;20.14;48.01
50292;BME280;36190;54.980;73.388;2022-09-01T01:38:11;99330.41;;;20.06;48.13
50292;BME280;36190;54.980;73.388;2022-09-01T01:40:40;99337.97;;;19.99;48.32
50292;BME280;36190;54.980;73.388;2022-09-01T01:43:08;99346.56;;;19.96;48.39
50292;BME280;36190;54.980;73.388;2022-09-01T01:45:36;99368.22;;;19.96;48.40
50292;BME280;36190;54.980;73.388;2022-09-01T01:48:04;99344.69;;;19.97;48.37
50292;BME280;36190;54.980;73.388;2022-09-01T01:50:34;99350.91;;;19.97;48.29
50292;BME280;36190;54.980;73.388;2022-09-01T01:53:05;99337.97;;;19.99;48.07
50292;BME280;36190;54.980;73.388;2022-09-01T01:55:34;99357.31;;;20.13;48.07
50292;BME280;36190;54.980;73.388;2022-09-01T01:58:02;99326.75;;;20.23;48.22
50292;BME280;36190;54.980;73.388;2022-09-01T02:00:31;99348.53;;;20.33;47.79
50292;BME280;36190;54.980;73.388;2022-09-01T02:03:00;99342.16;;;20.55;47.58
50292;BME280;36190;54.980;73.388;2022-09-01T02:05:29;99350.09;;;20.67;47.43
50292;BME280;36190;54.980;73.388;2022-09-01T02:08:00;99352.63;;;20.79;47.10
50292;BME280;36190;54.980;73.388;2022-09-01T02:10:31;99354.56;;;20.84;47.09
50292;BME280;36190;54.980;73.388;2022-09-01T02:13:00;99335.28;;;20.80;47.00
50292;BME280;36190;54.980;73.388;2022-09-01T02:15:35;99371.78;;;21.05;47.01
50292;BME280;36190;54.980;73.388;2022-09-01T02:18:09;99377.19;;;21.00;47.06
50292;BME280;36190;54.980;73.388;2022-09-01T02:20:38;99359.00;;;20.95;47.59
50292;BME280;36190;54.980;73.388;2022-09-01T02:23:06;99373.34;;;20.96;47.74
50292;BME280;36190;54.980;73.388;2022-09-01T02:25:36;99367.63;;;20.92;47.97
50292;BME280;36190;54.980;73.388;2022-09-01T02:28:04;99366.75;;;20.81;48.46
50292;BME280;36190;54.980;73.388;2022-09-01T02:30:35;99366.66;;;20.71;48.98
50292;BME280;36190;54.980;73.388;2022-09-01T02:33:05;99363.41;;;20.69;49.11
50292;BME280;36190;54.980;73.388;2022-09-01T02:35:34;99354.97;;;20.65;49.38
50292;BME280;36190;54.980;73.388;2022-09-01T02:38:03;99360.16;;;20.67;49.43
50292;BME280;36190;54.980;73.388;2022-09-01T02:40:30;99363.94;;;20.66;49.60
50292;BME280;36190;54.980;73.388;2022-09-01T02:42:59;99350.28;;;20.50;49.64
50292;BME280;36190;54.980;73.388;2022-09-01T02:45:27;99364.31;;;20.47;49.98
50292;BME280;36190;54.980;73.388;2022-09-01T02:47:56;99363.47;;;20.41;50.40
50292;BME280;36190;54.980;73.388;2022-09-01T02:50:24;99373.22;;;20.37;50.41
50292;BME280;36190;54.980;73.388;2022-09-01T02:52:52;99378.88;;;20.36;50.58
50292;BME280;36190;54.980;73.388;2022-09-01T02:55:19;99369.13;;;20.34;50.93
50292;BME280;36190;54.980;73.388;2022-09-01T02:57:49;99368.09;;;20.41;50.89
50292;BME280;36190;54.980;73.388;2022-09-01T03:00:17;99378.75;;;20.53;51.03
50292;BME280;36190;54.980;73.388;2022-09-01T03:02:56;99373.41;;;20.63;51.00
50292;BME280;36190;54.980;73.388;2022-09-01T03:05:26;99371.00;;;20.67;50.58
50292;BME280;36190;54.980;73.388;2022-09-01T03:07:56;99371.56;;;20.74;50.54
50292;BME280;36190;54.980;73.388;2022-09-01T03:10:26;99362.91;;;20.77;50.21
50292;BME280;36190;54.980;73.388;2022-09-01T03:12:58;99383.13;;;20.97;49.82
50292;BME280;36190;54.980;73.388;2022-09-01T03:15:27;99382.66;;;21.05;49.86
50292;BME280;36190;54.980;73.388;2022-09-01T03:17:56;99381.63;;;21.22;49.58
50292;BME280;36190;54.980;73.388;2022-09-01T03:20:26;99389.56;;;21.39;49.28
50292;BME280;36190;54.980;73.388;2022-09-01T03:22:54;99394.78;;;21.51;49.06
50292;BME280;36190;54.980;73.388;2022-09-01T03:25:23;99406.19;;;21.58;49.09
50292;BME280;36190;54.980;73.388;2022-09-01T03:27:51;99405.13;;;21.64;48.99
50292;BME280;36190;54.980;73.388;2022-09-01T03:30:19;99410.09;;;21.73;48.46
50292;BME280;36190;54.980;73.388;2022-09-01T03:32:46;99418.22;;;21.78;48.35
50292;BME280;36190;54.980;73.388;2022-09-01T03:35:16;99419.88;;;21.79;48.00
50292;BME280;36190;54.980;73.388;2022-09-01T03:37:44;99420.41;;;21.81;47.82
50292;BME280;36190;54.980;73.388;2022-09-01T03:40:12;99412.00;;;21.77;47.63
50292;BME280;36190;54.980;73.388;2022-09-01T03:42:41;99431.59;;;21.95;47.35
50292;BME280;36190;54.980;73.388;2022-09-01T03:45:10;99428.88;;;22.05;47.45
50292;BME280;36190;54.980;73.388;2022-09-01T03:47:41;99428.63;;;22.17;47.24
50292;BME280;36190;54.980;73.388;2022-09-01T03:50:11;99435.44;;;22.25;47.37
50292;BME280;36190;54.980;73.388;2022-09-01T03:52:46;99444.41;;;22.31;47.25
50292;BME280;36190;54.980;73.388;2022-09-01T03:55:18;99439.53;;;22.38;47.42
50292;BME280;36190;54.980;73.388;2022-09-01T03:57:48;99446.84;;;22.48;47.40
50292;BME280;36190;54.980;73.388;2022-09-01T04:00:16;99458.59;;;22.59;47.56
50292;BME280;36190;54.980;73.388;2022-09-01T04:02:49;99454.25;;;22.73;47.41
50292;BME280;36190;54.980;73.388;2022-09-01T04:05:17;99463.75;;;22.86;47.23
50292;BME280;36190;54.980;73.388;2022-09-01T04:07:49;99460.22;;;22.96;46.91
50292;BME280;36190;54.980;73.388;2022-09-01T04:10:17;99459.13;;;23.02;46.69
50292;BME280;36190;54.980;73.388;2022-09-01T04:12:45;99465.63;;;23.12;46.57
50292;BME280;36190;54.980;73.388;2022-09-01T04:15:13;99474.31;;;23.19;46.54
50292;BME280;36190;54.980;73.388;2022-09-01T04:17:41;99466.97;;;23.25;46.09
50292;BME280;36190;54.980;73.388;2022-09-01T04:20:26;99472.13;;;23.31;45.97
50292;BME280;36190;54.980;73.388;2022-09-01T04:22:55;99477.06;;;23.34;45.94
50292;BME280;36190;54.980;73.388;2022-09-01T04:25:22;99473.19;;;23.41;45.96
50292;BME280;36190;54.980;73.388;2022-09-01T04:27:52;99474.25;;;23.50;45.84
50292;BME280;36190;54.980;73.388;2022-09-01T04:30:20;99486.22;;;23.59;45.96
50292;BME280;36190;54.980;73.388;2022-09-01T04:32:56;99479.38;;;23.67;45.75
50292;BME280;36190;54.980;73.388;2022-09-01T04:35:23;99480.72;;;23.75;45.90
50292;BME280;36190;54.980;73.388;2022-09-01T04:37:58;99493.75;;;23.83;45.64
50292;BME280;36190;54.980;73.388;2022-09-01T04:40:26;99485.00;;;23.92;45.43
50292;BME280;36190;54.980;73.388;2022-09-01T04:42:53;99481.97;;;23.98;45.35
50292;BME280;36190;54.980;73.388;2022-09-01T04:45:21;99491.47;;;24.06;45.32
50292;BME280;36190;54.980;73.388;2022-09-01T04:47:49;99491.44;;;24.16;45.45
50292;BME280;36190;54.980;73.388;2022-09-01T04:50:17;99496.31;;;24.25;45.45
50292;BME280;36190;54.980;73.388;2022-09-01T04:52:46;99497.88;;;24.31;45.35
50292;BME280;36190;54.980;73.388;2022-09-01T04:55:17;99503.84;;;24.38;45.66
50292;BME280;36190;54.980;73.388;2022-09-01T04:57:45;99504.34;;;24.45;45.43
50292;BME280;36190;54.980;73.388;2022-09-01T05:00:14;99503.22;;;24.52;45.38
50292;BME280;36190;54.980;73.388;2022-09-01T05:02:49;99496.03;;;24.61;45.38
50292;BME280;36190;54.980;73.388;2022-09-01T05:05:18;99506.88;;;24.71;45.32
50292;BME280;36190;54.980;73.388;2022-09-01T05:07:46;99503.81;;;24.83;45.08
50292;BME280;36190;54.980;73.388;2022-09-01T05:10:19;99493.63;;;24.94;45.00
50292;BME280;36190;54.980;73.388;2022-09-01T05:12:47;99498.19;;;25.04;44.91
50292;BME280;36190;54.980;73.388;2022-09-01T05:15:17;99500.53;;;25.16;45.04
50292;BME280;36190;54.980;73.388;2022-09-01T05:17:45;99503.66;;;25.29;44.79
50292;BME280;36190;54.980;73.388;2022-09-01T05:20:14;99498.13;;;25.39;45.00
50292;BME280;36190;54.980;73.388;2022-09-01T05:22:41;99499.06;;;25.53;44.80
50292;BME280;36190;54.980;73.388;2022-09-01T05:25:09;99491.03;;;25.62;44.96
50292;BME280;36190;54.980;73.388;2022-09-01T05:27:42;99500.22;;;25.72;44.62
50292;BME280;36190;54.980;73.388;2022-09-01T05:30:15;99493.50;;;25.83;44.68
50292;BME280;36190;54.980;73.388;2022-09-01T05:32:43;99490.66;;;25.93;44.54
50292;BME280;36190;54.980;73.388;2022-09-01T05:35:12;99495.16;;;26.03;44.44
50292;BME280;36190;54.980;73.388;2022-09-01T05:37:39;99502.94;;;26.15;44.30
50292;BME280;36190;54.980;73.388;2022-09-01T05:40:09;99494.91;;;26.24;44.28
50292;BME280;36190;54.980;73.388;2022-09-01T05:42:42;99504.59;;;26.35;43.91
50292;BME280;36190;54.980;73.388;2022-09-01T05:45:10;99517.69;;;26.39;44.09
50292;BME280;36190;54.980;73.388;2022-09-01T05:47:39;99520.09;;;26.40;44.22
50292;BME280;36190;54.980;73.388;2022-09-01T05:50:07;99503.13;;;26.43;44.02
50292;BME280;36190;54.980;73.388;2022-09-01T05:52:36;99497.94;;;26.42;44.48
50292;BME280;36190;54.980;73.388;2022-09-01T05:55:05;99502.97;;;26.54;44.48
50292;BME280;36190;54.980;73.388;2022-09-01T05:57:34;99513.50;;;26.60;44.47
50292;BME280;36190;54.980;73.388;2022-09-01T06:00:06;99511.53;;;26.66;44.67
50292;BME280;36190;54.980;73.388;2022-09-01T06:02:38;99525.09;;;26.71;44.28
50292;BME280;36190;54.980;73.388;2022-09-01T06:05:08;99508.13;;;26.74;44.60
50292;BME280;36190;54.980;73.388;2022-09-01T06:07:36;99514.59;;;26.78;44.74
50292;BME280;36190;54.980;73.388;2022-09-01T06:10:08;99506.53;;;26.87;44.43
50292;BME280;36190;54.980;73.388;2022-09-01T06:12:36;99499.91;;;26.94;44.54
50292;BME280;36190;54.980;73.388;2022-09-01T06:15:06;99524.84;;;27.06;44.98
50292;BME280;36190;54.980;73.388;2022-09-01T06:17:40;99512.50;;;27.09;44.32
50292;BME280;36190;54.980;73.388;2022-09-01T06:20:09;99511.66;;;27.08;44.26
50292;BME280;36190;54.980;73.388;2022-09-01T06:22:36;99515.94;;;27.14;43.79
50292;BME280;36190;54.980;73.388;2022-09-01T06:25:05;99525.69;;;27.21;43.76
50292;BME280;36190;54.980;73.388;2022-09-01T06:27:33;99513.53;;;27.27;43.46
50292;BME280;36190;54.980;73.388;2022-09-01T06:30:08;99533.72;;;27.31;43.61
50292;BME280;36190;54.980;73.388;2022-09-01T06:32:40;99508.47;;;27.34;43.06
50292;BME280;36190;54.980;73.388;2022-09-01T06:35:09;99518.22;;;27.40;43.36
50292;BME280;36190;54.980;73.388;2022-09-01T06:37:38;99520.66;;;27.42;42.97
50292;BME280;36190;54.980;73.388;2022-09-01T06:40:09;99517.63;;;27.43;43.27
50292;BME280;36190;54.980;73.388;2022-09-01T06:42:42;99528.47;;;27.49;43.35
50292;BME280;36190;54.980;73.388;2022-09-01T06:45:12;99514.66;;;27.54;43.50
50292;BME280;36190;54.980;73.388;2022-09-01T06:47:40;99512.38;;;27.61;43.54
50292;BME280;36190;54.980;73.388;2022-09-01T06:50:10;99519.69;;;27.66;43.22
50292;BME280;36190;54.980;73.388;2022-09-01T06:52:40;99522.28;;;27.71;43.05
50292;BME280;36190;54.980;73.388;2022-09-01T06:55:08;99517.84;;;27.75;43.00
50292;BME280;36190;54.980;73.388;2022-09-01T06:57:36;99525.66;;;27.82;42.63
50292;BME280;36190;54.980;73.388;2022-09-01T07:00:06;99520.84;;;27.87;42.74
50292;BME280;36190;54.980;73.388;2022-09-01T07:02:44;99526.88;;;27.90;42.37
50292;BME280;36190;54.980;73.388;2022-09-01T07:05:13;99529.00;;;27.93;42.51
50292;BME280;36190;54.980;73.388;2022-09-01T07:07:46;99518.84;;;27.93;42.67
50292;BME280;36190;54.980;73.388;2022-09-01T07:10:17;99533.44;;;28.03;42.61
50292;BME280;36190;54.980;73.388;2022-09-01T07:12:47;99536.41;;;28.06;42.75
50292;BME280;36190;54.980;73.388;2022-09-01T07:15:15;99538.22;;;28.11;42.59
50292;BME280;36190;54.980;73.388;2022-09-01T07:17:48;99527.44;;;28.14;42.67
50292;BME280;36190;54.980;73.388;2022-09-01T07:20:16;99541.88;;;28.20;41.68
50292;BME280;36190;54.980;73.388;2022-09-01T07:22:45;99558.72;;;28.27;41.64
50292;BME280;36190;54.980;73.388;2022-09-01T07:25:14;99538.59;;;28.32;41.14
50292;BME280;36190;54.980;73.388;2022-09-01T07:27:43;99540.50;;;28.32;41.01
50292;BME280;36190;54.980;73.388;2022-09-01T07:30:15;99560.78;;;28.45;40.71
50292;BME280;36190;54.980;73.388;2022-09-01T07:32:43;99557.75;;;28.46;40.74
50292;BME280;36190;54.980;73.388;2022-09-01T07:35:13;99559.38;;;28.47;41.01
50292;BME280;36190;54.980;73.388;2022-09-01T07:37:40;99549.09;;;28.53;40.58
50292;BME280;36190;54.980;73.388;2022-09-01T07:40:11;99555.28;;;28.59;40.75
50292;BME280;36190;54.980;73.388;2022-09-01T07:42:45;99597.94;;;28.65;40.52
50292;BME280;36190;54.980;73.388;2022-09-01T07:45:14;99606.50;;;28.63;39.97
50292;BME280;36190;54.980;73.388;2022-09-01T07:47:42;99569.50;;;28.61;40.11
50292;BME280;36190;54.980;73.388;2022-09-01T07:50:12;99569.50;;;28.61;40.06
50292;BME280;36190;54.980;73.388;2022-09-01T07:52:41;99564.25;;;28.73;39.96
50292;BME280;36190;54.980;73.388;2022-09-01T07:55:09;99562.22;;;28.79;40.54
50292;BME280;36190;54.980;73.388;2022-09-01T07:57:37;99581.84;;;28.86;40.09
50292;BME280;36190;54.980;73.388;2022-09-01T08:00:08;99594.25;;;28.84;39.81
50292;BME280;36190;54.980;73.388;2022-09-01T08:02:37;99568.44;;;28.85;39.85
50292;BME280;36190;54.980;73.388;2022-09-01T08:05:06;99585.75;;;28.94;39.45
50292;BME280;36190;54.980;73.388;2022-09-01T08:07:36;99585.00;;;29.02;39.53
50292;BME280;36190;54.980;73.388;2022-09-01T08:10:06;99584.75;;;29.13;39.17
50292;BME280;36190;54.980;73.388;2022-09-01T08:12:34;99588.69;;;29.20;39.23
50292;BME280;36190;54.980;73.388;2022-09-01T08:15:01;99586.50;;;29.31;39.06
50292;BME280;36190;54.980;73.388;2022-09-01T08:17:29;99629.53;;;29.45;39.10
50292;BME280;36190;54.980;73.388;2022-09-01T08:19:56;99595.41;;;29.60;38.71
50292;BME280;36190;54.980;73.388;2022-09-01T08:22:24;99588.69;;;29.84;38.48
50292;BME280;36190;54.980;73.388;2022-09-01T08:24:53;99603.31;;;30.02;38.30
50292;BME280;36190;54.980;73.388;2022-09-01T08:27:20;99597.69;;;30.16;37.95
50292;BME280;36190;54.980;73.388;2022-09-01T08:29:48;99613.22;;;30.12;37.63
50292;BME280;36190;54.980;73.388;2022-09-01T08:32:15;99599.63;;;30.07;37.44
50292;BME280;36190;54.980;73.388;2022-09-01T08:34:42;99615.84;;;29.85;37.52
50292;BME280;36190;54.980;73.388;2022-09-01T08:37:10;99636.28;;;29.61;37.79
50292;BME280;36190;54.980;73.388;2022-09-01T08:39:38;99613.16;;;29.54;38.21
50292;BME280;36190;54.980;73.388;2022-09-01T08:42:14;99640.53;;;29.68;37.96
50292;BME280;36190;54.980;73.388;2022-09-01T08:44:52;99627.50;;;29.82;37.33
50292;BME280;36190;54.980;73.388;2022-09-01T08:47:23;99620.75;;;29.97;36.95
50292;BME280;36190;54.980;73.388;2022-09-01T08:49:50;99630.88;;;30.19;36.42
50292;BME280;36190;54.980;73.388;2022-09-01T08:52:23;99650.34;;;30.32;36.63
50292;BME280;36190;54.980;73.388;2022-09-01T08:54:57;99632.56;;;30.38;35.86
50292;BME280;36190;54.980;73.388;2022-09-01T08:57:33;99632.41;;;30.52;35.95
50292;BME280;36190;54.980;73.388;2022-09-01T09:00:01;99647.31;;;30.60;35.64
50292;BME280;36190;54.980;73.388;2022-09-01T09:02:43;99655.25;;;30.62;35.50
50292;BME280;36190;54.980;73.388;2022-09-01T09:05:28;99638.09;;;30.56;35.98
50292;BME280;36190;54.980;73.388;2022-09-01T09:08:26;99633.44;;;30.83;35.85
50292;BME280;36190;54.980;73.388;2022-09-01T09:10:59;99625.50;;;30.99;35.52
50292;BME280;36190;54.980;73.388;2022-09-01T09:13:38;99646.38;;;31.09;35.96
50292;BME280;36190;54.980;73.388;2022-09-01T09:16:14;99649.13;;;31.09;35.79
50292;BME280;36190;54.980;73.388;2022-09-01T09:18:47;99652.03;;;31.12;36.02
50292;BME280;36190;54.980;73.388;2022-09-01T09:21:21;99652.38;;;31.11;36.29
50292;BME280;36190;54.980;73.388;2022-09-01T09:23:55;99661.44;;;31.20;36.34
50292;BME280;36190;54.980;73.388;2022-09-01T09:26:26;99668.25;;;31.32;36.39
50292;BME280;36190;54.980;73.388;2022-09-01T09:28:57;99664.69;;;31.40;36.49
50292;BME280;36190;54.980;73.388;2022-09-01T09:31:28;99657.19;;;31.58;36.14
50292;BME280;36190;54.980;73.388;2022-09-01T09:33:56;99669.81;;;31.68;35.93
50292;BME280;36190;54.980;73.388;2022-09-01T09:36:32;99667.69;;;31.65;35.77
50292;BME280;36190;54.980;73.388;2022-09-01T09:39:06;99679.25;;;31.49;36.26
50292;BME280;36190;54.980;73.388;2022-09-01T09:41:34;99666.28;;;31.41;36.31
50292;BME280;36190;54.980;73.388;2022-09-01T09:44:20;99665.47;;;31.49;36.25
50292;BME280;36190;54.980;73.388;2022-09-01T09:46:48;99665.59;;;31.62;35.92
50292;BME280;36190;54.980;73.388;2022-09-01T09:49:18;99688.75;;;31.69;36.10
50292;BME280;36190;54.980;73.388;2022-09-01T09:51:50;99679.38;;;31.62;36.12
50292;BME280;36190;54.980;73.388;2022-09-01T09:54:21;99681.69;;;31.51;36.24
50292;BME280;36190;54.980;73.388;2022-09-01T09:57:02;99683.44;;;31.64;36.28
50292;BME280;36190;54.980;73.388;2022-09-01T09:59:34;99695.72;;;31.76;35.98
50292;BME280;36190;54.980;73.388;2022-09-01T10:02:18;99686.91;;;32.00;36.08
50292;BME280;36190;54.980;73.388;2022-09-01T10:04:50;99693.38;;;32.04;35.99
50292;BME280;36190;54.980;73.388;2022-09-01T10:07:27;99686.94;;;31.91;35.90
50292;BME280;36190;54.980;73.388;2022-09-01T10:09:57;99707.56;;;31.85;36.36
50292;BME280;36190;54.980;73.388;2022-09-01T10:12:27;99690.06;;;31.63;36.89
50292;BME280;36190;54.980;73.388;2022-09-01T10:14:59;99686.22;;;31.47;36.77
50292;BME280;36190;54.980;73.388;2022-09-01T10:17:31;99707.81;;;31.36;37.06
50292;BME280;36190;54.980;73.388;2022-09-01T10:20:03;99696.78;;;31.27;37.46
50292;BME280;36190;54.980;73.388;2022-09-01T10:22:33;99708.59;;;31.36;37.00
50292;BME280;36190;54.980;73.388;2022-09-01T10:25:01;99699.84;;;31.52;36.97
50292;BME280;36190;54.980;73.388;2022-09-01T10:27:31;99711.34;;;31.54;36.92
50292;BME280;36190;54.980;73.388;2022-09-01T10:30:06;99714.75;;;31.51;36.79
50292;BME280;36190;54.980;73.388;2022-09-01T10:32:37;99716.91;;;31.27;37.02
50292;BME280;36190;54.980;73.388;2022-09-01T10:35:09;99716.41;;;31.34;37.30
50292;BME280;36190;54.980;73.388;2022-09-01T10:37:39;99717.66;;;31.54;36.83
50292;BME280;36190;54.980;73.388;2022-09-01T10:40:16;99718.75;;;31.89;36.73
50292;BME280;36190;54.980;73.388;2022-09-01T10:42:45;99734.38;;;32.15;36.28
50292;BME280;36190;54.980;73.388;2022-09-01T10:45:28;99715.53;;;32.26;35.96
50292;BME280;36190;54.980;73.388;2022-09-01T10:48:26;99738.81;;;32.37;36.19
50292;BME280;36190;54.980;73.388;2022-09-01T10:53:56;99730.44;;;32.63;35.35
50292;BME280;36190;54.980;73.388;2022-09-01T10:56:34;99743.53;;;32.75;35.34
50292;BME280;36190;54.980;73.388;2022-09-01T10:59:06;99732.00;;;33.03;35.64
50292;BME280;36190;54.980;73.388;2022-09-01T11:05:10;99760.56;;;33.29;34.94
50292;BME280;36190;54.980;73.388;2022-09-01T11:07:38;99748.38;;;33.09;35.02
50292;BME280;36190;54.980;73.388;2022-09-01T11:10:26;99751.53;;;33.19;35.01
50292;BME280;36190;54.980;73.388;2022-09-01T11:13:09;99764.16;;;33.51;34.60
50292;BME280;36190;54.980;73.388;2022-09-01T11:15:42;99759.16;;;33.78;34.34
50292;BME280;36190;54.980;73.388;2022-09-01T11:18:14;99758.44;;;34.02;34.01
50292;BME280;36190;54.980;73.388;2022-09-01T11:20:44;99753.44;;;33.95;34.03
50292;BME280;36190;54.980;73.388;2022-09-01T11:23:19;99746.53;;;33.89;34.11
50292;BME280;36190;54.980;73.388;2022-09-01T11:25:48;99756.31;;;33.99;34.39
50292;BME280;36190;54.980;73.388;2022-09-01T11:28:40;99771.38;;;34.10;34.25
50292;BME280;36190;54.980;73.388;2022-09-01T11:31:19;99769.56;;;33.93;34.68
50292;BME280;36190;54.980;73.388;2022-09-01T11:34:18;99776.13;;;33.88;34.87
50292;BME280;36190;54.980;73.388;2022-09-01T11:36:58;99774.00;;;34.07;35.04
50292;BME280;36190;54.980;73.388;2022-09-01T11:39:45;99783.97;;;34.33;34.77
50292;BME280;36190;54.980;73.388;2022-09-01T11:42:17;99784.19;;;34.40;34.61
50292;BME280;36190;54.980;73.388;2022-09-01T11:44:49;99779.16;;;34.54;34.84
50292;BME280;36190;54.980;73.388;2022-09-01T11:47:21;99793.56;;;34.85;34.46
50292;BME280;36190;54.980;73.388;2022-09-01T11:49:54;99804.97;;;34.96;34.48
50292;BME280;36190;54.980;73.388;2022-09-01T11:52:26;99805.88;;;35.00;34.60
50292;BME280;36190;54.980;73.388;2022-09-01T11:54:55;99805.09;;;34.87;34.85
50292;BME280;36190;54.980;73.388;2022-09-01T11:57:28;99793.31;;;34.28;35.57
50292;BME280;36190;54.980;73.388;2022-09-01T11:59:58;99807.97;;;33.95;36.23
50292;BME280;36190;54.980;73.388;2022-09-01T12:02:28;99810.09;;;33.77;36.72
50292;BME280;36190;54.980;73.388;2022-09-01T12:04:58;99832.69;;;33.79;36.91
50292;BME280;36190;54.980;73.388;2022-09-01T12:07:37;99825.75;;;33.51;37.56
50292;BME280;36190;54.980;73.388;2022-09-01T12:10:14;99825.97;;;33.25;37.99
50292;BME280;36190;54.980;73.388;2022-09-01T12:12:43;99826.25;;;33.02;38.29
50292;BME280;36190;54.980;73.388;2022-09-01T12:15:18;99818.78;;;33.02;38.69
50292;BME280;36190;54.980;73.388;2022-09-01T12:17:46;99847.91;;;33.00;38.42
50292;BME280;36190;54.980;73.388;2022-09-01T12:20:22;99844.38;;;32.82;38.82
50292;BME280;36190;54.980;73.388;2022-09-01T12:22:52;99856.50;;;32.59;39.04
50292;BME280;36190;54.980;73.388;2022-09-01T12:25:22;99842.59;;;32.29;39.47
50292;BME280;36190;54.980;73.388;2022-09-01T12:27:51;99853.06;;;31.97;40.06
50292;BME280;36190;54.980;73.388;2022-09-01T12:30:19;99862.00;;;31.85;40.28
50292;BME280;36190;54.980;73.388;2022-09-01T12:32:47;99860.50;;;31.79;40.68
50292;BME280;36190;54.980;73.388;2022-09-01T12:35:17;99853.38;;;31.69;40.68
50292;BME280;36190;54.980;73.388;2022-09-01T12:37:47;99869.75;;;31.39;41.05
50292;BME280;36190;54.980;73.388;2022-09-01T12:40:24;99879.09;;;31.20;41.63
50292;BME280;36190;54.980;73.388;2022-09-01T12:42:52;99880.63;;;31.44;41.16
50292;BME280;36190;54.980;73.388;2022-09-01T12:45:37;99896.97;;;31.49;41.07
50292;BME280;36190;54.980;73.388;2022-09-01T12:48:05;99898.75;;;31.27;41.30
50292;BME280;36190;54.980;73.388;2022-09-01T12:50:40;99912.28;;;31.15;41.35
50292;BME280;36190;54.980;73.388;2022-09-01T12:53:21;99903.13;;;30.88;41.74
50292;BME280;36190;54.980;73.388;2022-09-01T12:59:05;99905.06;;;30.33;42.86
50292;BME280;36190;54.980;73.388;2022-09-01T13:01:35;99915.09;;;30.29;42.92
50292;BME280;36190;54.980;73.388;2022-09-01T13:04:26;99921.59;;;30.33;42.74
50292;BME280;36190;54.980;73.388;2022-09-01T13:07:00;99918.97;;;29.68;43.29
50292;BME280;36190;54.980;73.388;2022-09-01T13:09:27;99924.66;;;29.44;43.70
50292;BME280;36190;54.980;73.388;2022-09-01T13:12:10;99934.75;;;28.59;45.32
50292;BME280;36190;54.980;73.388;2022-09-01T13:14:38;99947.84;;;27.91;46.40
50292;BME280;36190;54.980;73.388;2022-09-01T13:17:05;99948.16;;;27.21;48.04
50292;BME280;36190;54.980;73.388;2022-09-01T13:19:32;99946.88;;;26.54;49.40